SBVTSBRJ

Guest
Details From SBVT - Goiabeiras
To SBRJ - Santos-Dumont
Flight Number -
Tags decoded
Created
Modified
Stats Distance 235 nm / 435 km
Max Altitude 0 ft / 0 m
Waypoints 3
Social Downloads 0
Likes 0
Share VATSIM

Download

Looking for another format? Having issues loading an existing format? Contact us
Advertisement - Login to hide

Notes

Requested: SBVT SK MAC PCK SBRJ

Route

SBVT MAC SBRJ

ID Type Via Altitude Latitude Longitude Leg Dist Tot Dist Heading (true) Name
O SBVT APT - 0 ft / 0 m -20.25561˚ -40.28889˚ - 0 nm - Goiabeiras
MAC NDB - 0 ft / 0 m -22.34532˚ -41.76136˚ 150 nm 150 nm 213° / 214° MACAE NDB
O SBRJ APT - 0 ft / 0 m -22.91046˚ -43.16313˚ 84 nm 234 nm 246° / 247° Santos-Dumont

Altitude Profile

Advertisement - Login to hide

Weather


0- 5 10 15 20 25 30 35+ Temperature / ° C

Clouds and Precipitation
Forecast for 2017-12-16 12:00 UTC. Updated 2 hours ago

Ground ~20,000 ft ~40,000 ft Winds

SBVT

Details ICAO SBVT (VIX)
Name Goiabeiras
Region Brazil
Timezone America/Sao_Paulo (UTC-2.0)
Stats Elevation 11 ft / 3 m (AMSL)
Location -20.255611° -40.288893°
Runways 1
Magnetic Variation 23.797° W

METAR

SBVT 161300Z 36008KT 9999 FEW030 31/24 Q1015

Decode

TAF

TAF SBVT 161000Z 1612/1712 03009KT 7000 SCT030 TX27/1615Z TN22/1708Z BECMG 1616/1618 36005KT PROB30 TEMPO 1620/1622 4000 SHRA BKN016 FEW025TCU BECMG 1623/1701 33004KT PROB30 TEMPO 1708/1710 5000 SHRA BKN013 RMK PEI

Decode

Departure Runways

ID Width Length Bearing (true) Bearing (mag) Surface Threshold Offset Overrun Length
05 148 ft / 45 m 5,769 ft / 1,759 m 31.71° 55.51° Asphalt 0 ft / 0 m 189 ft / 58 m
23 148 ft / 45 m 5,769 ft / 1,759 m 211.71° 235.51° Asphalt 0 ft / 0 m 189 ft / 58 m

SBRJ

Details ICAO SBRJ (SDU)
Name Santos-Dumont
Region Brazil
Timezone Unknown (UTC+0.0)
Stats Elevation 11 ft / 3 m (AMSL)
Location -22.910460° -43.163133°
Runways 2
Magnetic Variation 22.782° W

METAR

SBRJ 161300Z 16009KT 8000 FEW001 30/22 Q1014

Decode

TAF

TAF SBRJ 160740Z 1612/1624 36005KT 9999 SCT020 TX32/1617Z TN24/1624Z BECMG 1612/1614 04010KT BECMG 1615/1617 17010KT BECMG 1619/1621 14010KT RMK PGW

Decode

Destination Runways

ID Width Length Bearing (true) Bearing (mag) Surface Threshold Offset Overrun Length
02L 98 ft / 30 m 4,154 ft / 1,266 m 358.02° 20.80° Asphalt 0 ft / 0 m 80 ft / 24 m
02R 138 ft / 42 m 4,361 ft / 1,329 m 358.01° 20.79° Asphalt 0 ft / 0 m 80 ft / 24 m
20L 138 ft / 42 m 4,361 ft / 1,329 m 178.01° 200.79° Asphalt 0 ft / 0 m 80 ft / 24 m
20R 98 ft / 30 m 4,154 ft / 1,266 m 178.02° 200.80° Asphalt 0 ft / 0 m 95 ft / 29 m

Approach Navaids

Runway Type Ident Frequency Range Bearing (true) Bearing (mag) Slope Elevation
20L Localiser IRJ 111.10 MHz 18 nm / 33 km 172.42° 195.20° - 11 ft / 3 m (AMSL)

Popular Alternatives